Station Historical Data
Daily Summary for February 27, 2018 Units:  English    Metric   Both
« Previous Day
Next Day »
Daily Weekly Monthly Yearly Custom
  High: Low: Average:
Temperature: 51.8 °F 26.9 °F 40.2 °F
Dew Point: 31.0 °F 21.1 °F 26.4 °F
Humidity: 82% 37% 60%
Wind Speed: 14.0mph 0.0mph 4mph
Wind Gust: 23.0mph - -
Wind- - SW
Pressure: 30.35 in 30.07 in -
Precipitation: 0.00 in    
Historical Graphs
 
 
Tabular Data for February 27, 2018
Time Temperature Dew Point Pressure Wind Wind Speed Wind Gust Humidity Rainfall Rate (Hourly)
00:04 30.7 °F 25.0 °F 30.32 in SW 1.0 mph 3.0 mph 79% 0.00 in
00:09 30.5 °F 24.8 °F 30.32 in Calm   3.0 mph 79% 0.00 in
00:14 30.6 °F 24.9 °F 30.32 in SW 1.0 mph 3.0 mph 79% 0.00 in
00:19 30.5 °F 24.8 °F 30.32 in Calm     79% 0.00 in
00:24 30.5 °F 24.5 °F 30.32 in Calm     78% 0.00 in
00:29 30.5 °F 24.5 °F 30.33 in Calm     78% 0.00 in
00:34 30.4 °F 24.4 °F 30.33 in Calm     78% 0.00 in
00:39 30.2 °F 24.2 °F 30.33 in Calm     78% 0.00 in
00:44 29.9 °F 23.9 °F 30.33 in Calm     78% 0.00 in
00:49 29.7 °F 23.7 °F 30.33 in Calm     78% 0.00 in
00:54 29.2 °F 23.2 °F 30.33 in Calm     78% 0.00 in
00:59 29.0 °F 23.3 °F 30.33 in Calm     79% 0.00 in
01:04 28.8 °F 23.1 °F 30.33 in Calm     79% 0.00 in
01:09 28.5 °F 22.8 °F 30.33 in Calm     79% 0.00 in
01:14 28.4 °F 23.0 °F 30.33 in Calm     80% 0.00 in
01:19 28.2 °F 22.8 °F 30.33 in Calm     80% 0.00 in
01:24 28.1 °F 22.7 °F 30.33 in Calm     80% 0.00 in
01:29 27.8 °F 22.7 °F 30.33 in Calm     81% 0.00 in
01:34 27.8 °F 22.7 °F 30.33 in Calm     81% 0.00 in
01:39 27.9 °F 23.1 °F 30.33 in Calm     82% 0.00 in
01:44 27.9 °F 22.8 °F 30.33 in Calm     81% 0.00 in
01:49 27.7 °F 22.6 °F 30.33 in Calm     81% 0.00 in
01:54 27.6 °F 22.5 °F 30.33 in Calm     81% 0.00 in
01:59 27.7 °F 22.6 °F 30.33 in Calm     81% 0.00 in
02:04 27.8 °F 22.4 °F 30.33 in Calm     80% 0.00 in
02:09 27.8 °F 22.1 °F 30.33 in Calm     79% 0.00 in
02:14 27.7 °F 22.0 °F 30.33 in Calm     79% 0.00 in
02:19 27.4 °F 21.7 °F 30.33 in Calm     79% 0.00 in
02:24 27.4 °F 21.7 °F 30.33 in Calm     79% 0.00 in
02:29 27.9 °F 22.2 °F 30.33 in Calm     79% 0.00 in
02:34 28.0 °F 22.0 °F 30.33 in Calm     78% 0.00 in
02:39 27.8 °F 21.8 °F 30.33 in Calm     78% 0.00 in
02:44 27.9 °F 21.6 °F 30.33 in Calm     77% 0.00 in
02:49 28.0 °F 21.7 °F 30.33 in Calm     77% 0.00 in
02:54 28.0 °F 21.7 °F 30.33 in Calm     77% 0.00 in
02:59 28.0 °F 21.7 °F 30.33 in Calm     77% 0.00 in
03:04 27.9 °F 21.3 °F 30.32 in Calm     76% 0.00 in
03:09 27.6 °F 21.3 °F 30.32 in Calm     77% 0.00 in
03:14 27.5 °F 21.5 °F 30.32 in Calm     78% 0.00 in
03:24 27.6 °F 21.3 °F 30.32 in Calm     77% 0.00 in
03:34 27.4 °F 21.4 °F 30.32 in Calm     78% 0.00 in
03:39 27.4 °F 21.4 °F 30.32 in Calm     78% 0.00 in
03:44 27.4 °F 21.4 °F 30.32 in Calm     78% 0.00 in
03:49 27.1 °F 21.2 °F 30.32 in Calm     78% 0.00 in
03:54 27.0 °F 21.1 °F 30.32 in Calm     78% 0.00 in
03:59 27.0 °F 21.4 °F 30.32 in Calm     79% 0.00 in
04:09 27.0 °F 21.4 °F 30.32 in Calm     79% 0.00 in
04:14 26.9 °F 21.3 °F 30.32 in Calm     79% 0.00 in
04:19 27.1 °F 21.5 °F 30.32 in Calm     79% 0.00 in
04:24 26.9 °F 21.3 °F 30.32 in Calm     79% 0.00 in
04:29 27.2 °F 21.8 °F 30.33 in Calm     80% 0.00 in
04:34 27.6 °F 22.2 °F 30.33 in Calm     80% 0.00 in
04:39 27.9 °F 22.2 °F 30.33 in Calm     79% 0.00 in
04:44 28.4 °F 23.0 °F 30.33 in Calm     80% 0.00 in
04:54 29.7 °F 24.0 °F 30.33 in SW 2.0 mph 4.0 mph 79% 0.00 in
04:59 30.3 °F 24.3 °F 30.33 in SW 2.0 mph 4.0 mph 78% 0.00 in
05:04 30.7 °F 24.7 °F 30.33 in SW 2.0 mph 4.0 mph 78% 0.00 in
05:09 31.2 °F 24.8 °F 30.33 in SW 2.0 mph 4.0 mph 77% 0.00 in
05:14 31.7 °F 25.3 °F 30.33 in SW 2.0 mph 5.0 mph 77% 0.00 in
05:19 31.9 °F 25.2 °F 30.33 in SW 3.0 mph 6.0 mph 76% 0.00 in
05:24 31.9 °F 25.2 °F 30.33 in SW 2.0 mph 6.0 mph 76% 0.00 in
05:29 32.1 °F 25.4 °F 30.33 in SW 2.0 mph 6.0 mph 76% 0.00 in
05:34 32.1 °F 25.4 °F 30.33 in SW 3.0 mph 4.0 mph 76% 0.00 in
05:39 32.0 °F 25.3 °F 30.33 in SW 2.0 mph 4.0 mph 76% 0.00 in
05:44 31.8 °F 25.1 °F 30.33 in SW 1.0 mph 4.0 mph 76% 0.00 in
05:49 31.6 °F 25.2 °F 30.33 in Calm   3.0 mph 77% 0.00 in
05:54 31.4 °F 25.0 °F 30.33 in Calm   2.0 mph 77% 0.00 in
05:59 31.2 °F 24.8 °F 30.33 in Calm     77% 0.00 in
06:04 31.2 °F 25.1 °F 30.33 in SW 2.0 mph 4.0 mph 78% 0.00 in
06:09 31.1 °F 25.0 °F 30.33 in SW 1.0 mph 3.0 mph 78% 0.00 in
06:14 31.1 °F 25.0 °F 30.33 in SW 1.0 mph 3.0 mph 78% 0.00 in
06:19 31.3 °F 25.2 °F 30.33 in SW 1.0 mph 5.0 mph 78% 0.00 in
06:24 31.7 °F 25.6 °F 30.33 in SW 1.0 mph 5.0 mph 78% 0.00 in
06:29 31.8 °F 25.7 °F 30.33 in SW 2.0 mph 5.0 mph 78% 0.00 in
06:34 31.9 °F 25.5 °F 30.33 in SW 2.0 mph 4.0 mph 77% 0.00 in
06:39 31.7 °F 25.6 °F 30.33 in SW 2.0 mph 4.0 mph 78% 0.00 in
06:44 31.5 °F 25.4 °F 30.33 in SW 2.0 mph 3.0 mph 78% 0.00 in
06:49 32.0 °F 26.2 °F 30.34 in SW 2.0 mph 4.0 mph 79% 0.00 in
06:54 32.3 °F 26.2 °F 30.34 in SW 1.0 mph 4.0 mph 78% 0.00 in
06:59 32.7 °F 26.6 °F 30.34 in SW 3.0 mph 4.0 mph 78% 0.00 in
07:04 33.1 °F 26.7 °F 30.34 in SW 2.0 mph 4.0 mph 77% 0.00 in
07:09 33.4 °F 27.0 °F 30.34 in WSW 4.0 mph 6.0 mph 77% 0.00 in
07:14 33.8 °F 27.0 °F 30.34 in Calm   7.0 mph 76% 0.00 in
07:19 34.2 °F 27.4 °F 30.34 in WSW 5.0 mph 6.0 mph 76% 0.00 in
07:24 34.4 °F 27.3 °F 30.34 in WSW 3.0 mph 6.0 mph 75% 0.00 in
07:29 34.6 °F 27.5 °F 30.34 in WSW 2.0 mph 5.0 mph 75% 0.00 in
07:34 34.6 °F 27.5 °F 30.34 in WSW 2.0 mph 5.0 mph 75% 0.00 in
07:39 34.6 °F 27.5 °F 30.35 in WSW 2.0 mph 4.0 mph 75% 0.00 in
07:44 34.6 °F 27.5 °F 30.35 in WSW 2.0 mph 3.0 mph 75% 0.00 in
07:49 34.5 °F 27.7 °F 30.35 in WSW 1.0 mph 4.0 mph 76% 0.00 in
07:54 34.8 °F 27.7 °F 30.34 in WSW 2.0 mph 3.0 mph 75% 0.00 in
07:59 35.2 °F 28.1 °F 30.34 in WSW 4.0 mph 5.0 mph 75% 0.00 in
08:04 35.6 °F 28.1 °F 30.34 in SW 2.0 mph 5.0 mph 74% 0.00 in
08:09 35.9 °F 28.4 °F 30.34 in SW 2.0 mph 7.0 mph 74% 0.00 in
08:14 36.3 °F 28.8 °F 30.34 in SW 4.0 mph 5.0 mph 74% 0.00 in
08:19 36.6 °F 28.8 °F 30.34 in SW 3.0 mph 7.0 mph 73% 0.00 in
08:24 37.0 °F 29.1 °F 30.35 in SW 2.0 mph 7.0 mph 73% 0.00 in
08:29 37.5 °F 29.3 °F 30.35 in SW 2.0 mph 6.0 mph 72% 0.00 in
08:34 38.0 °F 29.4 °F 30.35 in SW 3.0 mph 6.0 mph 71% 0.00 in
08:39 38.7 °F 29.8 °F 30.35 in SW 3.0 mph 6.0 mph 70% 0.00 in
08:44 39.8 °F 30.1 °F 30.35 in SW 3.0 mph 7.0 mph 68% 0.00 in
08:49 40.5 °F 30.4 °F 30.35 in SW 4.0 mph 9.0 mph 67% 0.00 in
08:54 40.5 °F 30.0 °F 30.35 in SW 3.0 mph 9.0 mph 66% 0.00 in
08:59 40.8 °F 29.9 °F 30.35 in SW 5.0 mph 8.0 mph 65% 0.00 in
09:04 41.6 °F 30.7 °F 30.35 in WSW 4.0 mph 9.0 mph 65% 0.00 in
09:09 42.2 °F 30.5 °F 30.34 in SSW 4.0 mph 9.0 mph 63% 0.00 in
09:14 42.5 °F 30.0 °F 30.34 in SW 7.0 mph 12.0 mph 61% 0.00 in
09:19 42.9 °F 30.4 °F 30.34 in SW 5.0 mph 10.0 mph 61% 0.00 in
09:24 43.1 °F 30.1 °F 30.34 in WSW 3.0 mph 11.0 mph 60% 0.00 in
09:29 43.9 °F 30.5 °F 30.34 in SW 5.0 mph 9.0 mph 59% 0.00 in
09:34 44.1 °F 30.3 °F 30.34 in SSW 9.0 mph 13.0 mph 58% 0.00 in
09:39 44.3 °F 30.0 °F 30.34 in SW 7.0 mph 13.0 mph 57% 0.00 in
09:44 44.9 °F 31.0 °F 30.34 in WSW 6.0 mph 13.0 mph 58% 0.00 in
09:49 45.1 °F 29.9 °F 30.34 in WSW 7.0 mph 14.0 mph 55% 0.00 in
09:54 45.5 °F 29.8 °F 30.34 in WSW 8.0 mph 16.0 mph 54% 0.00 in
09:59 45.4 °F 29.7 °F 30.34 in WSW 8.0 mph 17.0 mph 54% 0.00 in
10:04 44.9 °F 29.7 °F 30.34 in WSW 9.0 mph 20.0 mph 55% 0.00 in
10:09 45.2 °F 29.5 °F 30.33 in WSW 4.0 mph 15.0 mph 54% 0.00 in
10:14 45.5 °F 29.8 °F 30.33 in West 10.0 mph 18.0 mph 54% 0.00 in
10:19 45.4 °F 29.7 °F 30.34 in WSW 14.0 mph 16.0 mph 54% 0.00 in
10:24 45.6 °F 29.9 °F 30.33 in WSW 8.0 mph 19.0 mph 54% 0.00 in
10:29 45.7 °F 29.5 °F 30.34 in SW 14.0 mph 17.0 mph 53% 0.00 in
10:34 46.0 °F 29.8 °F 30.34 in SW 8.0 mph 14.0 mph 53% 0.00 in
10:39 46.2 °F 30.0 °F 30.33 in SW 13.0 mph 15.0 mph 53% 0.00 in
10:44 46.4 °F 29.7 °F 30.33 in West 7.0 mph 15.0 mph 52% 0.00 in
10:49 47.0 °F 29.8 °F 30.33 in WSW 8.0 mph 15.0 mph 51% 0.00 in
10:54 47.0 °F 29.8 °F 30.33 in WSW 7.0 mph 13.0 mph 51% 0.00 in
10:59 47.0 °F 30.7 °F 30.33 in WSW 7.0 mph 14.0 mph 53% 0.00 in
11:04 46.9 °F 29.7 °F 30.33 in WSW 8.0 mph 16.0 mph 51% 0.00 in
11:09 47.0 °F 29.3 °F 30.33 in WSW 8.0 mph 17.0 mph 50% 0.00 in
11:14 46.6 °F 28.9 °F 30.33 in SW 10.0 mph 17.0 mph 50% 0.00 in
11:19 46.8 °F 29.1 °F 30.32 in WSW 10.0 mph 19.0 mph 50% 0.00 in
11:24 47.0 °F 28.8 °F 30.32 in WSW 9.0 mph 19.0 mph 49% 0.00 in
11:29 47.1 °F 29.4 °F 30.32 in WSW 8.0 mph 17.0 mph 50% 0.00 in
11:34 47.1 °F 29.4 °F 30.32 in West 9.0 mph 17.0 mph 50% 0.00 in
11:39 47.7 °F 28.9 °F 30.32 in SW 13.0 mph 16.0 mph 48% 0.00 in
11:44 47.7 °F 28.4 °F 30.32 in WSW 10.0 mph 16.0 mph 47% 0.00 in
11:49 47.8 °F 28.5 °F 30.32 in West 5.0 mph 19.0 mph 47% 0.00 in
11:54 47.9 °F 28.6 °F 30.32 in NNW 12.0 mph 17.0 mph 47% 0.00 in
11:59 47.8 °F 29.0 °F 30.32 in WSW 9.0 mph 18.0 mph 48% 0.00 in
12:04 47.8 °F 29.0 °F 30.32 in WSW 10.0 mph 21.0 mph 48% 0.00 in
12:09 47.3 °F 28.1 °F 30.31 in West 11.0 mph 22.0 mph 47% 0.00 in
12:14 47.6 °F 28.9 °F 30.31 in WSW 11.0 mph 22.0 mph 48% 0.00 in
12:19 47.6 °F 28.3 °F 30.31 in WSW 10.0 mph 21.0 mph 47% 0.00 in
12:24 47.9 °F 28.1 °F 30.31 in WSW 13.0 mph 17.0 mph 46% 0.00 in
12:29 47.5 °F 28.3 °F 30.30 in West 14.0 mph 21.0 mph 47% 0.00 in
12:34 47.6 °F 28.3 °F 30.30 in WSW 11.0 mph 23.0 mph 47% 0.00 in
12:39 47.9 °F 28.6 °F 30.30 in WSW 10.0 mph 23.0 mph 47% 0.00 in
12:44 48.7 °F 29.4 °F 30.29 in WSW 8.0 mph 17.0 mph 47% 0.00 in
12:49 48.5 °F 28.1 °F 30.29 in WSW 9.0 mph 19.0 mph 45% 0.00 in
12:54 48.0 °F 27.6 °F 30.28 in SSW 7.0 mph 20.0 mph 45% 0.00 in
12:59 48.3 °F 27.9 °F 30.28 in SW 14.0 mph 19.0 mph 45% 0.00 in
13:04 48.4 °F 27.5 °F 30.28 in WSW 9.0 mph 21.0 mph 44% 0.00 in
13:09 49.4 °F 30.0 °F 30.27 in WSW 9.0 mph 21.0 mph 47% 0.00 in
13:14 49.0 °F 28.0 °F 30.27 in WSW 8.0 mph 19.0 mph 44% 0.00 in
13:19 48.9 °F 29.0 °F 30.27 in WSW 7.0 mph 20.0 mph 46% 0.00 in
13:24 49.3 °F 28.8 °F 30.26 in SW 10.0 mph 17.0 mph 45% 0.00 in
13:29 49.7 °F 28.6 °F 30.26 in West 8.0 mph 14.0 mph 44% 0.00 in
13:34 49.8 °F 28.2 °F 30.26 in SSE 4.0 mph 15.0 mph 43% 0.00 in
13:39 49.8 °F 28.2 °F 30.26 in WSW 7.0 mph 16.0 mph 43% 0.00 in
13:44 50.3 °F 28.6 °F 30.26 in WSW 8.0 mph 16.0 mph 43% 0.00 in
13:49 50.2 °F 29.1 °F 30.25 in SW 8.0 mph 15.0 mph 44% 0.00 in
13:54 50.2 °F 28.0 °F 30.25 in SW 8.0 mph 15.0 mph 42% 0.00 in
13:59 50.2 °F 28.0 °F 30.25 in WSW 8.0 mph 15.0 mph 42% 0.00 in
14:04 50.3 °F 27.5 °F 30.24 in WSW 12.0 mph 17.0 mph 41% 0.00 in
14:09 50.2 °F 28.0 °F 30.24 in WSW 9.0 mph 17.0 mph 42% 0.00 in
14:14 50.7 °F 29.0 °F 30.24 in WSW 5.0 mph 19.0 mph 43% 0.00 in
14:19 50.8 °F 28.5 °F 30.23 in WSW 8.0 mph 19.0 mph 42% 0.00 in
14:24 51.1 °F 27.6 °F 30.23 in SW 10.0 mph 14.0 mph 40% 0.00 in
14:29 51.1 °F 27.6 °F 30.23 in West 5.0 mph 14.0 mph 40% 0.00 in
14:34 50.9 °F 28.0 °F 30.23 in WSW 8.0 mph 18.0 mph 41% 0.00 in
14:39 50.7 °F 27.2 °F 30.23 in WSW 9.0 mph 17.0 mph 40% 0.00 in
14:44 50.8 °F 27.3 °F 30.22 in SW 8.0 mph 18.0 mph 40% 0.00 in
14:49 50.9 °F 26.8 °F 30.23 in SW 10.0 mph 17.0 mph 39% 0.00 in
14:54 50.7 °F 27.8 °F 30.22 in WSW 9.0 mph 17.0 mph 41% 0.00 in
14:59 50.9 °F 27.4 °F 30.22 in WSW 9.0 mph 16.0 mph 40% 0.00 in
15:04 51.5 °F 27.9 °F 30.22 in WSW 8.0 mph 17.0 mph 40% 0.00 in
15:09 51.5 °F 26.7 °F 30.21 in WSW 8.0 mph 17.0 mph 38% 0.00 in
15:14 51.2 °F 25.8 °F 30.21 in WSW 10.0 mph 19.0 mph 37% 0.00 in
15:19 51.3 °F 27.2 °F 30.21 in WSW 10.0 mph 19.0 mph 39% 0.00 in
15:24 51.4 °F 26.6 °F 30.20 in WSW 9.0 mph 19.0 mph 38% 0.00 in
15:29 51.6 °F 26.8 °F 30.20 in SW 6.0 mph 14.0 mph 38% 0.00 in
15:34 51.4 °F 27.2 °F 30.20 in WSW 3.0 mph 18.0 mph 39% 0.00 in
15:39 51.0 °F 26.3 °F 30.20 in WSW 8.0 mph 18.0 mph 38% 0.00 in
15:49 51.8 °F 26.3 °F 30.19 in WSW 8.0 mph 14.0 mph 37% 0.00 in
15:54 51.7 °F 26.9 °F 30.19 in West 10.0 mph 12.0 mph 38% 0.00 in
15:59 51.8 °F 27.0 °F 30.19 in WSW 7.0 mph 13.0 mph 38% 0.00 in
16:04 51.5 °F 26.1 °F 30.19 in WSW 8.0 mph 14.0 mph 37% 0.00 in
16:09 51.1 °F 26.3 °F 30.18 in WSW 7.0 mph 14.0 mph 38% 0.00 in
16:14 51.2 °F 25.8 °F 30.18 in WSW 7.0 mph 15.0 mph 37% 0.00 in
16:24 50.7 °F 26.0 °F 30.18 in WSW 7.0 mph 13.0 mph 38% 0.00 in
16:29 50.8 °F 26.1 °F 30.17 in WSW 9.0 mph 15.0 mph 38% 0.00 in
16:39 50.7 °F 26.6 °F 30.17 in WSW 6.0 mph 13.0 mph 39% 0.00 in
16:44 50.8 °F 25.4 °F 30.17 in West 8.0 mph 10.0 mph 37% 0.00 in
16:49 50.7 °F 26.0 °F 30.17 in SW 6.0 mph 13.0 mph 38% 0.00 in
16:54 50.6 °F 25.3 °F 30.17 in WSW 7.0 mph 13.0 mph 37% 0.00 in
17:04 50.5 °F 25.2 °F 30.17 in SW 6.0 mph 13.0 mph 37% 0.00 in
17:09 50.1 °F 24.8 °F 30.17 in WSW 7.0 mph 16.0 mph 37% 0.00 in
17:14 49.6 °F 25.6 °F 30.17 in WSW 7.0 mph 16.0 mph 39% 0.00 in
17:19 48.9 °F 25.6 °F 30.17 in SW 8.0 mph 14.0 mph 40% 0.00 in
17:24 48.4 °F 25.8 °F 30.17 in WSW 7.0 mph 14.0 mph 41% 0.00 in
17:29 47.8 °F 25.8 °F 30.17 in WSW 7.0 mph 11.0 mph 42% 0.00 in
17:34 47.2 °F 26.4 °F 30.17 in WSW 3.0 mph 10.0 mph 44% 0.00 in
17:39 46.2 °F 27.1 °F 30.17 in SW 3.0 mph 7.0 mph 47% 0.00 in
17:44 45.0 °F 27.5 °F 30.17 in SW 4.0 mph 7.0 mph 50% 0.00 in
17:49 44.3 °F 27.3 °F 30.16 in SW 5.0 mph 8.0 mph 51% 0.00 in
17:54 43.8 °F 27.3 °F 30.16 in SW 5.0 mph 8.0 mph 52% 0.00 in
17:59 43.2 °F 27.7 °F 30.16 in SW 8.0 mph 9.0 mph 54% 0.00 in
18:04 42.7 °F 27.6 °F 30.16 in WSW 3.0 mph 7.0 mph 55% 0.00 in
18:09 42.4 °F 27.8 °F 30.16 in SW 4.0 mph 8.0 mph 56% 0.00 in
18:14 42.0 °F 27.9 °F 30.16 in SSW 4.0 mph 8.0 mph 57% 0.00 in
18:19 41.6 °F 27.5 °F 30.16 in SW 4.0 mph 8.0 mph 57% 0.00 in
18:24 41.5 °F 27.8 °F 30.16 in SSW 5.0 mph 9.0 mph 58% 0.00 in
18:29 41.3 °F 27.6 °F 30.16 in SW 4.0 mph 9.0 mph 58% 0.00 in
18:34 41.3 °F 27.6 °F 30.16 in SW 4.0 mph 8.0 mph 58% 0.00 in
18:39 41.7 °F 27.6 °F 30.16 in SW 4.0 mph 9.0 mph 57% 0.00 in
18:44 42.2 °F 27.6 °F 30.16 in SW 4.0 mph 9.0 mph 56% 0.00 in
18:49 42.3 °F 27.7 °F 30.16 in WSW 5.0 mph 8.0 mph 56% 0.00 in
18:54 42.5 °F 27.5 °F 30.16 in SW 4.0 mph 8.0 mph 55% 0.00 in
18:59 42.7 °F 27.2 °F 30.16 in SW 5.0 mph 11.0 mph 54% 0.00 in
19:04 42.8 °F 27.3 °F 30.16 in West 6.0 mph 10.0 mph 54% 0.00 in
19:09 42.8 °F 27.3 °F 30.15 in SW 3.0 mph 10.0 mph 54% 0.00 in
19:14 42.7 °F 27.2 °F 30.15 in SW 5.0 mph 10.0 mph 54% 0.00 in
19:19 42.8 °F 27.3 °F 30.15 in SW 2.0 mph 12.0 mph 54% 0.00 in
19:24 42.9 °F 27.4 °F 30.15 in WSW 8.0 mph 9.0 mph 54% 0.00 in
19:29 43.0 °F 27.5 °F 30.15 in SW 5.0 mph 9.0 mph 54% 0.00 in
19:34 42.9 °F 27.4 °F 30.15 in SW 4.0 mph 9.0 mph 54% 0.00 in
19:39 42.6 °F 27.5 °F 30.15 in SW 3.0 mph 7.0 mph 55% 0.00 in
19:44 42.4 °F 27.4 °F 30.15 in SW 2.0 mph 6.0 mph 55% 0.00 in
19:49 42.3 °F 27.3 °F 30.15 in SW 2.0 mph 6.0 mph 55% 0.00 in
19:54 42.3 °F 27.3 °F 30.14 in SSW 2.0 mph 7.0 mph 55% 0.00 in
19:59 42.6 °F 27.5 °F 30.14 in SW 2.0 mph 8.0 mph 55% 0.00 in
20:04 43.1 °F 27.6 °F 30.14 in SSW 4.0 mph 9.0 mph 54% 0.00 in
20:09 43.3 °F 27.3 °F 30.14 in SW 2.0 mph 6.0 mph 53% 0.00 in
20:14 43.3 °F 27.3 °F 30.14 in SW 2.0 mph 7.0 mph 53% 0.00 in
20:19 43.2 °F 27.2 °F 30.14 in SW 1.0 mph 5.0 mph 53% 0.00 in
20:24 43.0 °F 27.0 °F 30.14 in SW 2.0 mph 4.0 mph 53% 0.00 in
20:29 42.7 °F 27.2 °F 30.13 in SW 1.0 mph 4.0 mph 54% 0.00 in
20:34 42.5 °F 27.0 °F 30.13 in Calm   4.0 mph 54% 0.00 in
20:39 42.5 °F 27.0 °F 30.12 in SW 1.0 mph 4.0 mph 54% 0.00 in
20:44 42.6 °F 27.1 °F 30.12 in SW 1.0 mph 4.0 mph 54% 0.00 in
20:49 42.7 °F 26.7 °F 30.12 in SW 1.0 mph 4.0 mph 53% 0.00 in
20:54 42.1 °F 26.6 °F 30.12 in SW 1.0 mph 3.0 mph 54% 0.00 in
20:59 41.6 °F 26.6 °F 30.12 in Calm   2.0 mph 55% 0.00 in
21:04 40.9 °F 26.4 °F 30.12 in SW 1.0 mph 3.0 mph 56% 0.00 in
21:09 40.5 °F 26.4 °F 30.12 in SW 3.0 mph 3.0 mph 57% 0.00 in
21:14 40.3 °F 26.7 °F 30.12 in SW 2.0 mph 3.0 mph 58% 0.00 in
21:19 40.3 °F 26.7 °F 30.11 in SW 2.0 mph 3.0 mph 58% 0.00 in
21:24 40.4 °F 26.8 °F 30.11 in SW 3.0 mph 4.0 mph 58% 0.00 in
21:29 40.9 °F 26.8 °F 30.10 in SSW 3.0 mph 5.0 mph 57% 0.00 in
21:34 41.4 °F 26.9 °F 30.10 in SSW 1.0 mph 4.0 mph 56% 0.00 in
21:39 41.5 °F 26.5 °F 30.10 in SSW 2.0 mph 4.0 mph 55% 0.00 in
21:44 41.7 °F 26.7 °F 30.10 in SSW 3.0 mph 5.0 mph 55% 0.00 in
21:49 41.9 °F 26.4 °F 30.10 in SSW 3.0 mph 5.0 mph 54% 0.00 in
21:54 42.2 °F 26.3 °F 30.09 in SSW 3.0 mph 6.0 mph 53% 0.00 in
21:59 42.3 °F 26.4 °F 30.09 in SSW 3.0 mph 6.0 mph 53% 0.00 in
22:04 42.8 °F 26.4 °F 30.09 in SSW 2.0 mph 7.0 mph 52% 0.00 in
22:09 42.9 °F 26.0 °F 30.09 in SSW 5.0 mph 6.0 mph 51% 0.00 in
22:14 42.8 °F 25.9 °F 30.08 in SSW 2.0 mph 6.0 mph 51% 0.00 in
22:19 42.6 °F 26.2 °F 30.08 in SSW 1.0 mph 4.0 mph 52% 0.00 in
22:24 42.2 °F 25.8 °F 30.08 in SSW 2.0 mph 5.0 mph 52% 0.00 in
22:29 42.1 °F 25.7 °F 30.08 in SSW 2.0 mph 5.0 mph 52% 0.00 in
22:34 42.0 °F 25.6 °F 30.08 in SSW 3.0 mph 6.0 mph 52% 0.00 in
22:39 42.1 °F 25.7 °F 30.08 in South 3.0 mph 6.0 mph 52% 0.00 in
22:44 42.0 °F 25.6 °F 30.08 in SSW 3.0 mph 5.0 mph 52% 0.00 in
22:49 41.9 °F 25.5 °F 30.08 in South 3.0 mph 5.0 mph 52% 0.00 in
22:54 41.8 °F 25.4 °F 30.08 in SSW 2.0 mph 5.0 mph 52% 0.00 in
22:59 41.5 °F 25.6 °F 30.07 in SSW 1.0 mph 5.0 mph 53% 0.00 in
23:04 41.4 °F 25.5 °F 30.07 in SSW 1.0 mph 3.0 mph 53% 0.00 in
23:09 41.4 °F 25.5 °F 30.07 in SSW 2.0 mph 4.0 mph 53% 0.00 in
23:14 41.4 °F 25.5 °F 30.07 in SW 2.0 mph 5.0 mph 53% 0.00 in
23:19 41.4 °F 25.1 °F 30.07 in SSW 3.0 mph 4.0 mph 52% 0.00 in
23:24 41.2 °F 25.3 °F 30.07 in SSW 2.0 mph 4.0 mph 53% 0.00 in
23:29 41.2 °F 24.9 °F 30.07 in SSW 2.0 mph 3.0 mph 52% 0.00 in
23:34 41.0 °F 25.2 °F 30.07 in SSW 1.0 mph 4.0 mph 53% 0.00 in
23:39 41.2 °F 24.9 °F 30.07 in SSW 1.0 mph 4.0 mph 52% 0.00 in
23:44 41.2 °F 24.9 °F 30.07 in SSW 2.0 mph 4.0 mph 52% 0.00 in
23:49 40.6 °F 24.8 °F 30.07 in Calm   2.0 mph 53% 0.00 in
23:54 39.9 °F 24.6 °F 30.07 in Calm   2.0 mph 54% 0.00 in
23:59 39.4 °F 24.1 °F 30.07 in Calm     54% 0.00 in
Buffalo, New York, USA
Compliments of Weather Underground - 2.5 mb